createdAt,value
2019-01-21T00:00:00.900Z,-5.10
2019-01-21T00:01:13.613Z,-5.10
2019-01-21T00:02:20.538Z,-5.10
2019-01-21T00:03:27.284Z,-5.10
2019-01-21T00:04:34.280Z,-5.10
2019-01-21T00:05:41.271Z,-5.10
2019-01-21T00:06:48.406Z,-5.10
2019-01-21T00:07:55.507Z,-5.20
2019-01-21T00:09:02.588Z,-5.20
2019-01-21T00:10:09.538Z,-5.20
2019-01-21T00:11:16.549Z,-5.20
2019-01-21T00:12:23.606Z,-5.20
2019-01-21T00:13:30.738Z,-5.20
2019-01-21T00:14:37.599Z,-5.10
2019-01-21T00:15:44.796Z,-5.20
2019-01-21T00:16:51.515Z,-5.20
2019-01-21T00:17:58.289Z,-5.20
2019-01-21T00:19:05.063Z,-5.20
2019-01-21T00:20:11.777Z,-5.20
2019-01-21T00:21:18.552Z,-5.10
2019-01-21T00:22:25.552Z,-5.20
2019-01-21T00:23:32.456Z,-5.20
2019-01-21T00:24:39.183Z,-5.20
2019-01-21T00:25:45.906Z,-5.30
2019-01-21T00:26:53.079Z,-5.30
2019-01-21T00:27:59.820Z,-5.40
2019-01-21T00:29:06.617Z,-5.40
2019-01-21T00:30:13.533Z,-5.40
2019-01-21T00:31:20.306Z,-5.50
2019-01-21T00:32:27.633Z,-5.50
2019-01-21T00:33:34.947Z,-5.50
2019-01-21T00:34:41.728Z,-5.50
2019-01-21T00:35:48.492Z,-5.60
2019-01-21T00:36:55.268Z,-5.60
2019-01-21T00:38:02.032Z,-5.60
2019-01-21T00:39:09.550Z,-5.70
2019-01-21T00:40:16.862Z,-5.70
2019-01-21T00:41:23.761Z,-5.70
2019-01-21T00:42:30.629Z,-5.70
2019-01-21T00:43:37.749Z,-5.70
2019-01-21T00:44:44.868Z,-5.70
2019-01-21T00:45:51.882Z,-5.70
2019-01-21T00:46:58.625Z,-5.70
2019-01-21T00:48:05.533Z,-5.70
2019-01-21T00:49:12.216Z,-5.70
2019-01-21T00:50:18.896Z,-5.60
2019-01-21T00:51:25.843Z,-5.70
2019-01-21T00:52:32.747Z,-5.70
2019-01-21T00:53:39.797Z,-5.70
2019-01-21T00:54:47.161Z,-5.60
2019-01-21T00:55:54.186Z,-5.60
2019-01-21T00:57:00.921Z,-5.60
2019-01-21T00:58:08.167Z,-5.60
2019-01-21T00:59:15.028Z,-5.60
2019-01-21T01:00:26.113Z,-5.60
2019-01-21T01:01:33.547Z,-5.60
2019-01-21T01:02:40.267Z,-5.50
2019-01-21T01:03:47.402Z,-5.50
2019-01-21T01:04:54.756Z,-5.50
2019-01-21T01:06:01.458Z,-5.50
2019-01-21T01:07:08.733Z,-5.50
2019-01-21T01:08:15.443Z,-5.60
2019-01-21T01:09:22.351Z,-5.60
2019-01-21T01:10:29.074Z,-5.60
2019-01-21T01:11:35.821Z,-5.70
2019-01-21T01:12:42.773Z,-5.70
2019-01-21T01:13:49.845Z,-5.70
2019-01-21T01:14:56.928Z,-5.70
2019-01-21T01:16:03.634Z,-5.70
2019-01-21T01:17:10.975Z,-5.70
2019-01-21T01:18:18.366Z,-5.70
2019-01-21T01:19:25.060Z,-5.70
2019-01-21T01:20:32.416Z,-5.70
2019-01-21T01:21:39.537Z,-5.70
2019-01-21T01:22:46.643Z,-5.70
2019-01-21T01:23:55.095Z,-5.70
2019-01-21T01:25:02.130Z,-5.60
2019-01-21T01:26:09.175Z,-5.60
2019-01-21T01:27:16.219Z,-5.70
2019-01-21T01:28:22.921Z,-5.70
2019-01-21T01:29:29.612Z,-5.70
2019-01-21T01:30:36.410Z,-5.70
2019-01-21T01:31:43.151Z,-5.70
2019-01-21T01:32:50.638Z,-5.70
2019-01-21T01:33:57.335Z,-5.70
2019-01-21T01:35:04.030Z,-5.70
2019-01-21T01:36:10.754Z,-5.70
2019-01-21T01:37:17.455Z,-5.70
2019-01-21T01:38:24.170Z,-5.70
2019-01-21T01:39:30.845Z,-5.70
2019-01-21T01:40:37.892Z,-5.70
2019-01-21T01:41:44.816Z,-5.70
2019-01-21T01:42:51.889Z,-5.70
2019-01-21T01:43:59.015Z,-5.70
2019-01-21T01:45:06.871Z,-5.70
2019-01-21T01:46:13.571Z,-5.80
2019-01-21T01:47:20.984Z,-5.80
2019-01-21T01:48:28.787Z,-5.70
2019-01-21T01:49:35.536Z,-5.70
2019-01-21T01:50:42.695Z,-5.70
2019-01-21T01:51:49.385Z,-5.60
2019-01-21T01:52:56.603Z,-5.60
2019-01-21T01:54:03.321Z,-5.60
2019-01-21T01:55:11.462Z,-5.60
2019-01-21T01:56:18.127Z,-5.70
2019-01-21T01:57:25.179Z,-5.70
2019-01-21T01:58:31.897Z,-5.70
2019-01-21T01:59:38.862Z,-5.70
2019-01-21T02:00:45.526Z,-5.70
2019-01-21T02:01:52.270Z,-5.80
2019-01-21T02:02:59.511Z,-5.90
2019-01-21T02:04:06.439Z,-5.90
2019-01-21T02:05:13.155Z,-5.80
2019-01-21T02:06:20.156Z,-5.90
2019-01-21T02:07:26.885Z,-5.90
2019-01-21T02:08:33.550Z,-5.90
2019-01-21T02:09:40.334Z,-6.00
2019-01-21T02:10:47.546Z,-5.90
2019-01-21T02:11:54.553Z,-6.00
2019-01-21T02:13:02.042Z,-5.90
2019-01-21T02:14:08.840Z,-5.90
2019-01-21T02:15:16.376Z,-5.90
2019-01-21T02:16:23.160Z,-5.90
2019-01-21T02:17:29.910Z,-5.90
2019-01-21T02:18:36.694Z,-5.90
2019-01-21T02:19:47.765Z,-6.00
2019-01-21T02:20:59.038Z,-6.00
2019-01-21T02:22:23.732Z,-6.00
2019-01-21T02:23:36.309Z,-6.00
2019-01-21T02:24:46.046Z,-6.10
2019-01-21T02:26:01.726Z,-6.10
2019-01-21T02:27:29.016Z,-6.10
2019-01-21T02:29:04.684Z,-6.10
2019-01-21T02:30:53.351Z,-6.10
2019-01-21T02:32:59.128Z,-6.00
2019-01-21T02:35:03.100Z,-6.00
2019-01-21T02:36:44.086Z,-6.00
2019-01-21T02:38:33.764Z,-6.00
2019-01-21T02:40:13.492Z,-6.00
2019-01-21T02:41:51.406Z,-6.00
2019-01-21T02:43:43.718Z,-6.00
2019-01-21T02:45:38.047Z,-6.00
2019-01-21T02:47:46.197Z,-6.10
2019-01-21T02:49:53.393Z,-6.10
2019-01-21T02:51:39.017Z,-6.10
2019-01-21T02:53:32.267Z,-6.10
2019-01-21T02:55:12.662Z,-6.20
2019-01-21T02:57:12.221Z,-6.10
2019-01-21T02:59:34.000Z,-6.20
2019-01-21T03:01:31.257Z,-6.20
2019-01-21T03:03:32.546Z,-6.20
2019-01-21T03:05:16.031Z,-6.20
2019-01-21T03:07:19.553Z,-6.10
2019-01-21T03:09:44.457Z,-6.20
2019-01-21T03:11:37.766Z,-6.20
2019-01-21T03:13:08.501Z,-6.20
2019-01-21T03:15:03.987Z,-6.20
2019-01-21T03:17:06.992Z,-6.20
2019-01-21T03:19:32.493Z,-6.20
2019-01-21T03:21:59.628Z,-6.30
2019-01-21T03:24:03.625Z,-6.30
2019-01-21T03:26:15.006Z,-6.40
2019-01-21T03:28:24.392Z,-6.40
2019-01-21T03:30:25.891Z,-6.50
2019-01-21T03:33:01.284Z,-6.50
2019-01-21T03:35:17.278Z,-6.50
2019-01-21T03:37:29.899Z,-6.50
2019-01-21T03:39:44.910Z,-6.60
2019-01-21T03:42:09.554Z,-6.60
2019-01-21T03:43:57.380Z,-6.50
2019-01-21T03:46:26.530Z,-6.50
2019-01-21T03:48:16.752Z,-6.50
2019-01-21T03:50:17.677Z,-6.50
2019-01-21T03:52:35.466Z,-6.50
2019-01-21T03:54:09.384Z,-6.50
2019-01-21T03:55:19.024Z,-6.50
2019-01-21T03:57:03.412Z,-6.50
2019-01-21T03:59:06.848Z,-6.50
2019-01-21T04:01:17.025Z,-6.50
2019-01-21T04:03:24.557Z,-6.50
2019-01-21T04:05:10.819Z,-6.50
2019-01-21T04:06:52.844Z,-6.50
2019-01-21T04:08:53.599Z,-6.50
2019-01-21T04:11:13.828Z,-6.60
2019-01-21T04:13:19.855Z,-6.60
2019-01-21T04:15:30.064Z,-6.60
2019-01-21T04:17:15.955Z,-6.60
2019-01-21T04:19:10.000Z,-6.60
2019-01-21T04:21:18.980Z,-6.70
2019-01-21T04:23:14.896Z,-6.70
2019-01-21T04:25:08.676Z,-6.80
2019-01-21T04:27:23.869Z,-6.80
2019-01-21T04:29:25.135Z,-6.80
2019-01-21T04:31:46.521Z,-6.80
2019-01-21T04:33:24.653Z,-6.80
2019-01-21T04:35:19.200Z,-6.80
2019-01-21T04:37:13.476Z,-6.80
2019-01-21T04:39:22.690Z,-6.80
2019-01-21T04:41:17.629Z,-6.80
2019-01-21T04:43:29.912Z,-6.80
2019-01-21T04:44:58.956Z,-6.80
2019-01-21T04:46:58.625Z,-6.80
2019-01-21T04:48:58.304Z,-6.90
2019-01-21T04:50:46.353Z,-6.90
2019-01-21T04:52:40.468Z,-6.90
2019-01-21T04:54:22.433Z,-6.90
2019-01-21T04:56:09.740Z,-6.90
2019-01-21T04:58:11.311Z,-6.90
2019-01-21T05:00:20.813Z,-6.80
2019-01-21T05:02:17.537Z,-6.90
2019-01-21T05:04:14.669Z,-6.90
2019-01-21T05:06:40.253Z,-6.90
2019-01-21T05:08:34.100Z,-6.90
2019-01-21T05:10:30.235Z,-7.00
2019-01-21T05:12:44.654Z,-6.90
2019-01-21T05:14:31.298Z,-6.90
2019-01-21T05:16:41.597Z,-6.90
2019-01-21T05:18:48.748Z,-6.90
2019-01-21T05:21:01.103Z,-6.90
2019-01-21T05:22:37.972Z,-6.90
2019-01-21T05:24:38.845Z,-6.90
2019-01-21T05:27:03.392Z,-6.80
2019-01-21T05:29:07.308Z,-6.80
2019-01-21T05:31:04.463Z,-6.80
2019-01-21T05:32:59.233Z,-6.90
2019-01-21T05:35:27.608Z,-6.90
2019-01-21T05:37:31.814Z,-6.90
2019-01-21T05:39:08.276Z,-6.90
2019-01-21T05:41:03.414Z,-6.90
2019-01-21T05:42:57.384Z,-7.00
2019-01-21T05:44:59.620Z,-7.00
2019-01-21T05:46:49.183Z,-7.00
2019-01-21T05:48:50.556Z,-7.00
2019-01-21T05:51:22.785Z,-7.00
2019-01-21T05:53:32.302Z,-7.00
2019-01-21T05:55:33.656Z,-7.00
2019-01-21T05:57:50.005Z,-7.10
2019-01-21T05:59:50.491Z,-7.10
2019-01-21T06:02:09.062Z,-7.10
2019-01-21T06:04:15.465Z,-7.00
2019-01-21T06:06:13.993Z,-6.90
2019-01-21T06:08:20.977Z,-6.80
2019-01-21T06:10:16.734Z,-6.80
2019-01-21T06:12:18.140Z,-6.80
2019-01-21T06:14:20.914Z,-6.80
2019-01-21T06:16:16.481Z,-6.80
2019-01-21T06:17:51.942Z,-6.90
2019-01-21T06:19:47.688Z,-6.90
2019-01-21T06:22:01.802Z,-6.90
2019-01-21T06:23:45.599Z,-6.80
2019-01-21T06:25:34.023Z,-6.90
2019-01-21T06:27:40.148Z,-6.80
2019-01-21T06:29:35.671Z,-6.80
2019-01-21T06:31:57.819Z,-6.80
2019-01-21T06:34:19.477Z,-6.90
2019-01-21T06:36:18.466Z,-6.90
2019-01-21T06:38:24.086Z,-6.90
2019-01-21T06:40:25.788Z,-7.00
2019-01-21T06:42:44.931Z,-7.00
2019-01-21T06:44:49.226Z,-7.00
2019-01-21T06:47:06.406Z,-7.00
2019-01-21T06:48:53.976Z,-7.00
2019-01-21T06:51:13.334Z,-7.00
2019-01-21T06:53:23.033Z,-6.90
2019-01-21T06:55:25.865Z,-7.00
2019-01-21T06:57:43.891Z,-6.90
2019-01-21T07:00:03.329Z,-6.90
2019-01-21T07:02:05.168Z,-6.90
2019-01-21T07:04:06.516Z,-6.90
2019-01-21T07:06:15.017Z,-6.90
2019-01-21T07:08:21.073Z,-6.80
2019-01-21T07:10:09.854Z,-6.70
2019-01-21T07:12:18.175Z,-6.70
2019-01-21T07:14:22.873Z,-6.80
2019-01-21T07:16:27.078Z,-6.90
2019-01-21T07:18:48.822Z,-7.00
2019-01-21T07:21:13.332Z,-7.00
2019-01-21T07:22:36.877Z,-7.00
2019-01-21T07:24:44.783Z,-7.00
2019-01-21T07:26:33.371Z,-6.90
2019-01-21T07:28:37.766Z,-6.90
2019-01-21T07:30:51.039Z,-6.90
2019-01-21T07:33:08.598Z,-6.90
2019-01-21T07:35:27.059Z,-7.00
2019-01-21T07:37:47.522Z,-7.00
2019-01-21T07:39:41.503Z,-6.90
2019-01-21T07:41:47.274Z,-7.00
2019-01-21T07:43:35.914Z,-6.90
2019-01-21T07:45:11.801Z,-6.90
2019-01-21T07:47:14.977Z,-7.00
2019-01-21T07:49:36.156Z,-6.90
2019-01-21T07:51:27.336Z,-6.90
2019-01-21T07:53:35.886Z,-6.90
2019-01-21T07:55:49.278Z,-6.90
2019-01-21T07:58:01.968Z,-6.80
2019-01-21T08:00:03.887Z,-6.80
2019-01-21T08:01:49.165Z,-6.70
2019-01-21T08:04:00.544Z,-6.70
2019-01-21T08:06:12.762Z,-6.70
2019-01-21T08:08:13.286Z,-6.60
2019-01-21T08:10:15.623Z,-6.70
2019-01-21T08:11:54.451Z,-6.60
2019-01-21T08:14:19.396Z,-6.60
2019-01-21T08:16:32.689Z,-6.60
2019-01-21T08:18:11.854Z,-6.50
2019-01-21T08:20:22.952Z,-6.50
2019-01-21T08:22:40.831Z,-6.50
2019-01-21T08:24:40.817Z,-6.40
2019-01-21T08:26:25.967Z,-6.30
2019-01-21T08:28:04.716Z,-6.40
2019-01-21T08:30:12.865Z,-6.30
2019-01-21T08:31:59.636Z,-6.20
2019-01-21T08:33:55.846Z,-6.10
2019-01-21T08:35:47.035Z,-6.00
2019-01-21T08:37:51.436Z,-5.90
2019-01-21T08:40:01.481Z,-5.80
2019-01-21T08:42:08.636Z,-5.70
2019-01-21T08:44:40.036Z,-5.70
2019-01-21T08:46:27.295Z,-5.60
2019-01-21T08:48:29.320Z,-5.50
2019-01-21T08:50:16.750Z,-5.50
2019-01-21T08:52:07.355Z,-5.50
2019-01-21T08:53:49.648Z,-5.40
2019-01-21T08:55:49.786Z,-5.40
2019-01-21T08:57:42.618Z,-5.30
2019-01-21T08:59:43.503Z,-5.30
2019-01-21T09:01:52.775Z,-5.20
2019-01-21T09:04:04.073Z,-5.20
2019-01-21T09:06:09.488Z,-5.10
2019-01-21T09:08:19.840Z,-5.00
2019-01-21T09:10:07.332Z,-4.90
2019-01-21T09:12:07.479Z,-4.90
2019-01-21T09:13:54.635Z,-4.90
2019-01-21T09:15:44.855Z,-4.80
2019-01-21T09:17:34.816Z,-4.80
2019-01-21T09:19:19.928Z,-4.70
2019-01-21T09:21:13.038Z,-4.70
2019-01-21T09:22:44.659Z,-4.60
2019-01-21T09:24:56.817Z,-4.60
2019-01-21T09:26:23.282Z,-4.50
2019-01-21T09:28:32.046Z,-4.40
2019-01-21T09:30:27.748Z,-4.40
2019-01-21T09:32:34.355Z,-4.30
2019-01-21T09:34:23.440Z,-4.20
2019-01-21T09:36:41.194Z,-4.10
2019-01-21T09:38:39.643Z,-4.00
2019-01-21T09:40:37.236Z,-3.90
2019-01-21T09:42:47.006Z,-3.80
2019-01-21T09:44:37.455Z,-3.70
2019-01-21T09:46:48.662Z,-3.70
2019-01-21T09:47:52.780Z,-3.60
2019-01-21T09:48:57.176Z,-3.40
2019-01-21T09:50:05.262Z,-3.40
2019-01-21T09:51:12.291Z,-3.30
2019-01-21T09:52:22.304Z,-3.20
2019-01-21T09:53:29.138Z,-3.20
2019-01-21T09:54:40.835Z,-3.20
2019-01-21T09:55:53.205Z,-3.10
2019-01-21T09:57:02.129Z,-3.00
2019-01-21T09:58:10.417Z,-2.90
2019-01-21T09:59:17.476Z,-2.90
2019-01-21T10:00:24.947Z,-2.90
2019-01-21T10:01:33.972Z,-2.90
2019-01-21T10:02:50.953Z,-2.80
2019-01-21T10:03:58.284Z,-2.80
2019-01-21T10:05:17.318Z,-2.80
2019-01-21T10:06:52.920Z,-2.70
2019-01-21T10:09:16.046Z,-2.70
2019-01-21T10:11:52.828Z,-2.60
2019-01-21T10:14:14.261Z,-2.50
2019-01-21T10:15:50.891Z,-2.40
2019-01-21T10:17:32.194Z,-2.30
2019-01-21T10:19:38.256Z,-2.20
2019-01-21T10:21:28.579Z,-2.00
2019-01-21T10:23:27.035Z,-1.90
2019-01-21T10:25:22.805Z,-1.80
2019-01-21T10:27:49.589Z,-1.70
2019-01-21T10:29:17.148Z,-1.80
2019-01-21T10:31:13.798Z,-1.80
2019-01-21T10:33:24.040Z,-1.80
2019-01-21T10:35:24.272Z,-1.70
2019-01-21T10:37:26.326Z,-1.60
2019-01-21T10:39:25.245Z,-1.50
2019-01-21T10:41:06.498Z,-1.50
2019-01-21T10:43:06.313Z,-1.40
2019-01-21T10:45:05.639Z,-1.30
2019-01-21T10:47:26.742Z,-1.20
2019-01-21T10:49:47.556Z,-1.10
2019-01-21T10:51:21.295Z,-1.10
2019-01-21T10:53:24.856Z,-1.00
2019-01-21T10:55:02.283Z,-1.00
2019-01-21T10:56:59.673Z,-0.90
2019-01-21T10:58:51.511Z,-0.80
2019-01-21T11:00:41.551Z,-0.70
2019-01-21T11:02:41.897Z,-0.70
2019-01-21T11:04:48.001Z,-0.60
2019-01-21T11:06:20.568Z,-0.60
2019-01-21T11:08:41.875Z,-0.40
2019-01-21T11:10:44.919Z,-0.40
2019-01-21T11:12:57.140Z,-0.30
2019-01-21T11:14:48.383Z,-0.20
2019-01-21T11:16:34.650Z,-0.20
2019-01-21T11:18:40.743Z,-0.20
2019-01-21T11:20:42.734Z,-0.10
2019-01-21T11:22:07.746Z,0.00
2019-01-21T11:23:55.415Z,0.00
2019-01-21T11:26:06.203Z,0.20
2019-01-21T11:27:59.965Z,0.20
2019-01-21T11:30:00.186Z,0.20
2019-01-21T11:31:49.553Z,0.20
2019-01-21T11:34:04.872Z,0.30
2019-01-21T11:36:19.926Z,0.40
2019-01-21T11:38:40.943Z,0.50
2019-01-21T11:40:30.488Z,0.50
2019-01-21T11:42:41.099Z,0.60
2019-01-21T11:44:43.497Z,0.60
2019-01-21T11:46:55.022Z,0.70
2019-01-21T11:48:50.862Z,0.80
2019-01-21T11:51:02.930Z,0.80
2019-01-21T11:52:47.738Z,0.80
2019-01-21T11:54:37.557Z,0.80
2019-01-21T11:56:37.957Z,0.90
2019-01-21T11:58:30.291Z,1.00
2019-01-21T12:00:08.226Z,1.10
2019-01-21T12:01:41.888Z,1.10
2019-01-21T12:03:41.903Z,1.10
2019-01-21T12:05:31.740Z,1.20
2019-01-21T12:07:04.825Z,1.20
2019-01-21T12:09:09.394Z,1.30
2019-01-21T12:11:13.651Z,1.40
2019-01-21T12:12:54.058Z,1.40
2019-01-21T12:14:52.989Z,1.40
2019-01-21T12:17:05.217Z,1.50
2019-01-21T12:19:09.489Z,1.50
2019-01-21T12:21:36.981Z,1.40
2019-01-21T12:23:36.616Z,1.50
2019-01-21T12:25:02.006Z,1.50
2019-01-21T12:27:00.415Z,1.50
2019-01-21T12:28:35.375Z,1.50
2019-01-21T12:30:33.163Z,1.60
2019-01-21T12:32:54.887Z,1.60
2019-01-21T12:34:19.895Z,1.70
2019-01-21T12:36:40.543Z,1.80
2019-01-21T12:38:29.141Z,1.80
2019-01-21T12:40:26.775Z,1.80
2019-01-21T12:42:13.452Z,1.80
2019-01-21T12:44:08.323Z,1.80
2019-01-21T12:46:23.271Z,1.80
2019-01-21T12:48:13.458Z,1.80
2019-01-21T12:50:38.088Z,1.80
2019-01-21T12:52:50.036Z,1.80
2019-01-21T12:54:53.890Z,1.80
2019-01-21T12:57:03.644Z,1.90
2019-01-21T12:59:23.674Z,1.90
2019-01-21T13:01:17.387Z,1.90
2019-01-21T13:03:51.259Z,2.00
2019-01-21T13:05:21.138Z,2.00
2019-01-21T13:07:34.114Z,2.00
2019-01-21T13:09:20.165Z,2.00
2019-01-21T13:11:15.697Z,2.10
2019-01-21T13:13:21.041Z,2.10
2019-01-21T13:15:18.091Z,2.10
2019-01-21T13:17:13.290Z,2.10
2019-01-21T13:19:22.218Z,2.10
2019-01-21T13:21:19.225Z,2.10
2019-01-21T13:23:17.345Z,2.00
2019-01-21T13:25:07.564Z,2.00
2019-01-21T13:27:21.427Z,2.00
2019-01-21T13:29:13.778Z,2.00
2019-01-21T13:31:12.030Z,2.00
2019-01-21T13:33:15.005Z,2.10
2019-01-21T13:35:21.505Z,2.00
2019-01-21T13:37:12.392Z,2.10
2019-01-21T13:39:09.008Z,2.00
2019-01-21T13:41:42.783Z,2.00
2019-01-21T13:43:35.362Z,1.90
2019-01-21T13:45:45.615Z,1.80
2019-01-21T13:48:01.753Z,1.80
2019-01-21T13:49:30.475Z,1.70
2019-01-21T13:51:51.970Z,1.70
2019-01-21T13:53:43.985Z,1.70
2019-01-21T13:55:52.745Z,1.70
2019-01-21T13:57:48.302Z,1.60
2019-01-21T13:59:35.543Z,1.60
2019-01-21T14:02:08.305Z,1.60
2019-01-21T14:03:58.789Z,1.60
2019-01-21T14:06:14.737Z,1.60
2019-01-21T14:08:05.010Z,1.60
2019-01-21T14:10:00.047Z,1.50
2019-01-21T14:11:54.367Z,1.50
2019-01-21T14:13:52.077Z,1.50
2019-01-21T14:15:57.146Z,1.50
2019-01-21T14:18:09.411Z,1.50
2019-01-21T14:19:54.099Z,1.50
2019-01-21T14:21:38.616Z,1.50
2019-01-21T14:23:25.403Z,1.50
2019-01-21T14:25:49.922Z,1.50
2019-01-21T14:28:04.464Z,1.50
2019-01-21T14:30:07.395Z,1.50
2019-01-21T14:32:25.983Z,1.50
2019-01-21T14:34:11.291Z,1.50
2019-01-21T14:36:02.585Z,1.50
2019-01-21T14:37:52.472Z,1.50
2019-01-21T14:39:35.152Z,1.50
2019-01-21T14:41:36.865Z,1.50
2019-01-21T14:43:51.764Z,1.50
2019-01-21T14:45:43.201Z,1.50
2019-01-21T14:47:35.567Z,1.40
2019-01-21T14:49:33.310Z,1.40
2019-01-21T14:51:58.085Z,1.30
2019-01-21T14:53:48.118Z,1.30
2019-01-21T14:55:42.048Z,1.30
2019-01-21T14:57:35.621Z,1.20
2019-01-21T14:59:28.851Z,1.20
2019-01-21T15:01:33.845Z,1.10
2019-01-21T15:03:34.134Z,1.10
2019-01-21T15:05:15.980Z,1.00
2019-01-21T15:07:12.802Z,1.00
2019-01-21T15:08:43.174Z,0.90
2019-01-21T15:10:23.346Z,0.90
2019-01-21T15:12:22.231Z,0.90
2019-01-21T15:14:30.772Z,0.80
2019-01-21T15:16:48.216Z,0.80
2019-01-21T15:18:23.184Z,0.70
2019-01-21T15:19:59.349Z,0.70
2019-01-21T15:21:18.425Z,0.70
2019-01-21T15:23:31.019Z,0.60
2019-01-21T15:25:31.755Z,0.60
2019-01-21T15:27:47.648Z,0.50
2019-01-21T15:29:40.090Z,0.50
2019-01-21T15:31:20.713Z,0.50
2019-01-21T15:33:19.393Z,0.40
2019-01-21T15:35:41.976Z,0.40
2019-01-21T15:37:25.857Z,0.40
2019-01-21T15:39:29.323Z,0.40
2019-01-21T15:41:35.361Z,0.40
2019-01-21T15:43:24.016Z,0.40
2019-01-21T15:44:53.732Z,0.50
2019-01-21T15:46:47.933Z,0.50
2019-01-21T15:48:40.184Z,0.50
2019-01-21T15:50:45.739Z,0.50
2019-01-21T15:52:34.567Z,0.50
2019-01-21T15:54:10.872Z,0.50
2019-01-21T15:55:57.443Z,0.50
2019-01-21T15:57:55.672Z,0.40
2019-01-21T16:00:07.060Z,0.40
2019-01-21T16:02:15.431Z,0.40
2019-01-21T16:04:07.373Z,0.40
2019-01-21T16:05:54.849Z,0.30
2019-01-21T16:07:53.079Z,0.30
2019-01-21T16:09:33.566Z,0.30
2019-01-21T16:11:56.522Z,0.30
2019-01-21T16:13:24.426Z,0.30
2019-01-21T16:15:18.427Z,0.30
2019-01-21T16:17:18.700Z,0.30
2019-01-21T16:19:01.654Z,0.30
2019-01-21T16:21:29.717Z,0.40
2019-01-21T16:23:31.371Z,0.40
2019-01-21T16:25:13.868Z,0.40
2019-01-21T16:26:45.990Z,0.40
2019-01-21T16:28:57.958Z,0.40
2019-01-21T16:30:50.642Z,0.40
2019-01-21T16:32:26.917Z,0.40
2019-01-21T16:34:39.266Z,0.40
2019-01-21T16:36:17.154Z,0.40
2019-01-21T16:38:21.791Z,0.50
2019-01-21T16:40:40.606Z,0.50
2019-01-21T16:42:14.894Z,0.50
2019-01-21T16:43:21.871Z,0.50
2019-01-21T16:44:28.858Z,0.50
2019-01-21T16:45:35.826Z,0.50
2019-01-21T16:46:42.534Z,0.50
2019-01-21T16:47:49.546Z,0.50
2019-01-21T16:48:56.784Z,0.50
2019-01-21T16:50:04.671Z,0.50
2019-01-21T16:51:12.204Z,0.50
2019-01-21T16:52:18.902Z,0.50
2019-01-21T16:53:25.611Z,0.50
2019-01-21T16:54:33.152Z,0.50
2019-01-21T16:55:39.976Z,0.50
2019-01-21T16:56:47.326Z,0.50
2019-01-21T16:57:54.533Z,0.50
2019-01-21T16:59:01.590Z,0.50
2019-01-21T17:00:10.133Z,0.50
2019-01-21T17:01:16.838Z,0.50
2019-01-21T17:02:23.523Z,0.50
2019-01-21T17:03:30.258Z,0.50
2019-01-21T17:04:37.414Z,0.50
2019-01-21T17:05:44.213Z,0.50
2019-01-21T17:06:51.261Z,0.50
2019-01-21T17:07:58.309Z,0.40
2019-01-21T17:09:09.625Z,0.50
2019-01-21T17:10:16.508Z,0.40
2019-01-21T17:11:23.574Z,0.50
2019-01-21T17:12:30.756Z,0.50
2019-01-21T17:13:37.958Z,0.40
2019-01-21T17:14:44.688Z,0.40
2019-01-21T17:15:51.367Z,0.40
2019-01-21T17:16:58.371Z,0.40
2019-01-21T17:18:05.328Z,0.40
2019-01-21T17:19:12.035Z,0.40
2019-01-21T17:20:22.206Z,0.40
2019-01-21T17:21:29.058Z,0.40
2019-01-21T17:22:35.723Z,0.40
2019-01-21T17:23:42.455Z,0.40
2019-01-21T17:24:49.135Z,0.40
2019-01-21T17:25:55.829Z,0.40
2019-01-21T17:27:02.910Z,0.40
2019-01-21T17:28:10.083Z,0.40
2019-01-21T17:29:20.194Z,0.40
2019-01-21T17:30:26.881Z,0.40
2019-01-21T17:31:33.917Z,0.40
2019-01-21T17:32:40.730Z,0.40
2019-01-21T17:33:47.645Z,0.40
2019-01-21T17:34:54.737Z,0.40
2019-01-21T17:36:01.844Z,0.40
2019-01-21T17:37:08.619Z,0.40
2019-01-21T17:38:15.609Z,0.40
2019-01-21T17:39:22.363Z,0.30
2019-01-21T17:40:29.615Z,0.40
2019-01-21T17:41:36.382Z,0.40
2019-01-21T17:42:43.386Z,0.40
2019-01-21T17:43:50.083Z,0.40
2019-01-21T17:44:57.083Z,0.40
2019-01-21T17:46:03.821Z,0.40
2019-01-21T17:47:10.562Z,0.30
2019-01-21T17:48:17.625Z,0.40
2019-01-21T17:49:24.291Z,0.30
2019-01-21T17:50:31.513Z,0.30
2019-01-21T17:51:38.225Z,0.30
2019-01-21T17:52:45.223Z,0.30
2019-01-21T17:53:51.945Z,0.30
2019-01-21T17:54:58.672Z,0.30
2019-01-21T17:56:05.807Z,0.30
2019-01-21T17:57:12.809Z,0.30
2019-01-21T17:58:19.485Z,0.30
2019-01-21T17:59:26.166Z,0.30
2019-01-21T18:00:34.192Z,0.30
2019-01-21T18:01:40.990Z,0.30
2019-01-21T18:02:47.666Z,0.30
2019-01-21T18:03:54.401Z,0.30
2019-01-21T18:05:01.243Z,0.30
2019-01-21T18:06:07.964Z,0.30
2019-01-21T18:07:14.985Z,0.30
2019-01-21T18:08:22.761Z,0.30
2019-01-21T18:09:29.778Z,0.30
2019-01-21T18:10:36.838Z,0.30
2019-01-21T18:11:43.633Z,0.30
2019-01-21T18:12:50.628Z,0.30
2019-01-21T18:13:57.666Z,0.30
2019-01-21T18:15:06.501Z,0.30
2019-01-21T18:16:13.591Z,0.40
2019-01-21T18:17:20.784Z,0.30
2019-01-21T18:18:27.439Z,0.30
2019-01-21T18:19:34.113Z,0.30
2019-01-21T18:20:40.802Z,0.30
2019-01-21T18:21:47.605Z,0.30
2019-01-21T18:22:54.734Z,0.30
2019-01-21T18:24:01.442Z,0.30
2019-01-21T18:25:09.900Z,0.30
2019-01-21T18:26:16.680Z,0.30
2019-01-21T18:27:23.842Z,0.30
2019-01-21T18:28:30.963Z,0.30
2019-01-21T18:29:38.275Z,0.30
2019-01-21T18:30:45.669Z,0.30
2019-01-21T18:31:52.540Z,0.30
2019-01-21T18:33:00.063Z,0.30
2019-01-21T18:34:07.371Z,0.30
2019-01-21T18:35:14.805Z,0.30
2019-01-21T18:36:21.936Z,0.30
2019-01-21T18:37:29.086Z,0.30
2019-01-21T18:38:36.024Z,0.30
2019-01-21T18:39:43.133Z,0.30
2019-01-21T18:40:50.009Z,0.30
2019-01-21T18:41:56.948Z,0.30
2019-01-21T18:43:03.993Z,0.30
2019-01-21T18:44:11.262Z,0.30
2019-01-21T18:45:22.907Z,0.30
2019-01-21T18:46:30.260Z,0.30
2019-01-21T18:47:37.508Z,0.30
2019-01-21T18:48:44.565Z,0.30
2019-01-21T18:49:51.881Z,0.30
2019-01-21T18:50:59.222Z,0.30
2019-01-21T18:52:06.491Z,0.30
2019-01-21T18:53:13.719Z,0.30
2019-01-21T18:54:20.653Z,0.30
2019-01-21T18:55:27.641Z,0.30
2019-01-21T18:56:34.402Z,0.30
2019-01-21T18:57:41.355Z,0.30
2019-01-21T18:58:48.526Z,0.30
2019-01-21T18:59:55.680Z,0.30
2019-01-21T19:01:02.377Z,0.30
2019-01-21T19:02:09.167Z,0.30
2019-01-21T19:03:16.288Z,0.30
2019-01-21T19:04:23.340Z,0.30
2019-01-21T19:05:30.179Z,0.30
2019-01-21T19:06:36.955Z,0.30
2019-01-21T19:07:43.655Z,0.30
2019-01-21T19:08:50.992Z,0.30
2019-01-21T19:09:58.090Z,0.30
2019-01-21T19:11:04.776Z,0.30
2019-01-21T19:12:11.632Z,0.30
2019-01-21T19:13:18.743Z,0.30
2019-01-21T19:14:26.330Z,0.30
2019-01-21T19:15:34.672Z,0.30
2019-01-21T19:16:42.529Z,0.30
2019-01-21T19:17:49.909Z,0.30
2019-01-21T19:18:57.146Z,0.30
2019-01-21T19:20:04.870Z,0.30
2019-01-21T19:21:12.082Z,0.30
2019-01-21T19:22:18.839Z,0.30
2019-01-21T19:23:26.239Z,0.30
2019-01-21T19:24:34.570Z,0.20
2019-01-21T19:25:42.017Z,0.30
2019-01-21T19:26:49.623Z,0.30
2019-01-21T19:27:57.074Z,0.20
2019-01-21T19:29:04.635Z,0.30
2019-01-21T19:30:16.430Z,0.30
2019-01-21T19:31:23.520Z,0.20
2019-01-21T19:32:30.982Z,0.20
2019-01-21T19:33:38.326Z,0.30
2019-01-21T19:34:45.546Z,0.30
2019-01-21T19:35:52.374Z,0.30
2019-01-21T19:36:59.652Z,0.30
2019-01-21T19:38:07.050Z,0.30
2019-01-21T19:39:13.924Z,0.20
2019-01-21T19:40:32.808Z,0.20
2019-01-21T19:41:39.992Z,0.30
2019-01-21T19:42:49.198Z,0.20
2019-01-21T19:43:56.412Z,0.20
2019-01-21T19:45:03.199Z,0.20
2019-01-21T19:46:10.215Z,0.20
2019-01-21T19:47:17.220Z,0.20
2019-01-21T19:48:23.932Z,0.20
2019-01-21T19:49:30.804Z,0.20
2019-01-21T19:50:37.620Z,0.20
2019-01-21T19:51:44.549Z,0.20
2019-01-21T19:52:51.532Z,0.20
2019-01-21T19:53:58.589Z,0.20
2019-01-21T19:55:07.454Z,0.20
2019-01-21T19:56:14.441Z,0.20
2019-01-21T19:57:21.820Z,0.20
2019-01-21T19:58:28.758Z,0.20
2019-01-21T19:59:36.399Z,0.20
2019-01-21T20:00:43.351Z,0.20
2019-01-21T20:01:50.116Z,0.20
2019-01-21T20:02:57.307Z,0.20
2019-01-21T20:04:04.251Z,0.20
2019-01-21T20:05:12.562Z,0.20
2019-01-21T20:06:19.541Z,0.20
2019-01-21T20:07:26.855Z,0.20
2019-01-21T20:08:33.912Z,0.20
2019-01-21T20:09:40.919Z,0.20
2019-01-21T20:10:48.096Z,0.20
2019-01-21T20:11:55.441Z,0.20
2019-01-21T20:13:02.734Z,0.20
2019-01-21T20:14:10.178Z,0.20
2019-01-21T20:15:18.427Z,0.20
2019-01-21T20:16:25.790Z,0.20
2019-01-21T20:17:32.745Z,0.20
2019-01-21T20:18:39.678Z,0.20
2019-01-21T20:19:47.490Z,0.20
2019-01-21T20:20:54.903Z,0.20
2019-01-21T20:22:07.270Z,0.20
2019-01-21T20:23:11.641Z,0.20
2019-01-21T20:24:18.644Z,0.20
2019-01-21T20:25:25.685Z,0.20
2019-01-21T20:26:32.466Z,0.20
2019-01-21T20:27:40.525Z,0.20
2019-01-21T20:28:47.623Z,0.20
2019-01-21T20:29:54.699Z,0.20
2019-01-21T20:31:01.764Z,0.20
2019-01-21T20:32:08.693Z,0.20
2019-01-21T20:33:16.656Z,0.20
2019-01-21T20:34:23.469Z,0.20
2019-01-21T20:35:30.691Z,0.20
2019-01-21T20:36:37.770Z,0.20
2019-01-21T20:37:45.006Z,0.20
2019-01-21T20:38:51.774Z,0.20
2019-01-21T20:39:58.470Z,0.20
2019-01-21T20:41:05.195Z,0.20
2019-01-21T20:42:12.079Z,0.20
2019-01-21T20:43:18.780Z,0.10
2019-01-21T20:44:25.552Z,0.10
2019-01-21T20:45:32.389Z,0.10
2019-01-21T20:46:39.716Z,0.10